createdAt,value
2023-02-03T00:00:09.187Z,93.02
2023-02-03T00:01:10.929Z,92.48
2023-02-03T00:02:12.778Z,92.88
2023-02-03T00:03:14.605Z,92.07
2023-02-03T00:04:16.486Z,92.39
2023-02-03T00:05:18.300Z,92.63
2023-02-03T00:06:20.143Z,91.90
2023-02-03T00:07:22.921Z,92.63
2023-02-03T00:08:24.727Z,91.92
2023-02-03T00:09:26.629Z,92.43
2023-02-03T00:10:28.487Z,92.68
2023-02-03T00:11:31.052Z,92.72
2023-02-03T00:12:33.160Z,91.90
2023-02-03T00:13:35.514Z,92.41
2023-02-03T00:14:38.215Z,92.57
2023-02-03T00:15:40.022Z,92.12
2023-02-03T00:16:41.989Z,92.25
2023-02-03T00:17:43.783Z,92.54
2023-02-03T00:18:45.554Z,92.52
2023-02-03T00:19:47.371Z,92.43
2023-02-03T00:20:49.212Z,92.70
2023-02-03T00:21:51.015Z,92.69
2023-02-03T00:22:52.809Z,92.53
2023-02-03T00:23:54.949Z,92.56
2023-02-03T00:24:56.786Z,92.56
2023-02-03T00:26:06.548Z,92.92
2023-02-03T00:27:08.500Z,92.86
2023-02-03T00:28:10.368Z,92.03
2023-02-03T00:29:12.267Z,92.84
2023-02-03T00:30:14.151Z,92.41
2023-02-03T00:31:17.292Z,92.48
2023-02-03T00:32:19.168Z,92.85
2023-02-03T00:33:21.068Z,92.64
2023-02-03T00:34:22.882Z,91.99
2023-02-03T00:35:24.656Z,92.08
2023-02-03T00:36:26.749Z,92.08
2023-02-03T00:37:28.680Z,92.81
2023-02-03T00:38:30.505Z,92.83
2023-02-03T00:39:32.305Z,91.90
2023-02-03T00:40:34.168Z,91.88
2023-02-03T00:41:35.959Z,92.69
2023-02-03T00:42:37.761Z,92.28
2023-02-03T00:43:39.636Z,92.09
2023-02-03T00:44:41.678Z,92.22
2023-02-03T00:45:43.490Z,92.05
2023-02-03T00:46:45.336Z,92.25
2023-02-03T00:47:47.285Z,92.85
2023-02-03T00:48:49.115Z,92.25
2023-02-03T00:49:50.913Z,92.86
2023-02-03T00:50:52.917Z,92.89
2023-02-03T00:51:54.643Z,92.49
2023-02-03T00:52:56.448Z,93.04
2023-02-03T00:53:58.291Z,92.64
2023-02-03T00:55:00.139Z,92.65
2023-02-03T00:56:02.018Z,93.01
2023-02-03T00:57:03.915Z,92.76
2023-02-03T00:58:05.758Z,92.94
2023-02-03T00:59:07.572Z,93.07
2023-02-03T01:00:09.694Z,93.07
2023-02-03T01:01:12.050Z,92.76
2023-02-03T01:02:13.977Z,93.75
2023-02-03T01:03:16.883Z,93.41
2023-02-03T01:04:18.665Z,93.20
2023-02-03T01:05:20.481Z,93.38
2023-02-03T01:06:22.724Z,92.92
2023-02-03T01:07:24.490Z,93.07
2023-02-03T01:08:26.872Z,92.55
2023-02-03T01:09:28.668Z,93.33
2023-02-03T01:10:30.661Z,93.17
2023-02-03T01:11:32.865Z,92.84
2023-02-03T01:12:34.746Z,92.74
2023-02-03T01:13:36.872Z,92.68
2023-02-03T01:14:38.660Z,93.01
2023-02-03T01:15:46.094Z,92.33
2023-02-03T01:16:47.932Z,93.11
2023-02-03T01:17:50.185Z,93.29
2023-02-03T01:18:51.966Z,93.28
2023-02-03T01:19:53.795Z,93.29
2023-02-03T01:20:55.667Z,92.33
2023-02-03T01:21:57.467Z,92.29
2023-02-03T01:22:59.253Z,92.47
2023-02-03T01:24:01.640Z,92.94
2023-02-03T01:25:03.417Z,92.55
2023-02-03T01:26:06.843Z,93.34
2023-02-03T01:27:08.810Z,92.46
2023-02-03T01:28:10.971Z,92.51
2023-02-03T01:29:12.823Z,92.63
2023-02-03T01:30:14.817Z,92.79
2023-02-03T01:31:18.973Z,92.44
2023-02-03T01:32:20.971Z,92.94
2023-02-03T01:33:22.828Z,92.60
2023-02-03T01:34:24.647Z,92.67
2023-02-03T01:35:26.528Z,92.55
2023-02-03T01:36:29.712Z,92.74
2023-02-03T01:37:31.621Z,92.83
2023-02-03T01:38:33.413Z,92.93
2023-02-03T01:39:35.160Z,92.97
2023-02-03T01:40:43.093Z,93.19
2023-02-03T01:41:44.928Z,93.03
2023-02-03T01:42:46.802Z,92.82
2023-02-03T01:43:50.064Z,93.11
2023-02-03T01:44:52.776Z,94.19
2023-02-03T01:45:54.573Z,93.83
2023-02-03T01:46:56.390Z,93.79
2023-02-03T01:47:59.965Z,93.72
2023-02-03T01:49:06.565Z,93.89
2023-02-03T01:50:08.415Z,94.61
2023-02-03T01:51:10.413Z,93.66
2023-02-03T01:52:12.209Z,94.21
2023-02-03T01:53:14.253Z,94.22
2023-02-03T01:54:18.654Z,93.79
2023-02-03T01:55:23.218Z,93.84
2023-02-03T01:56:28.993Z,93.83
2023-02-03T01:57:34.245Z,94.47
2023-02-03T01:58:38.479Z,93.81
2023-02-03T01:59:40.448Z,94.72
2023-02-03T02:00:44.042Z,94.69
2023-02-03T02:01:46.834Z,94.63
2023-02-03T02:02:49.215Z,94.82
2023-02-03T02:03:54.032Z,94.51
2023-02-03T02:04:55.796Z,94.90
2023-02-03T02:06:02.085Z,94.30
2023-02-03T02:07:04.535Z,94.35
2023-02-03T02:08:07.569Z,94.31
2023-02-03T02:09:09.625Z,95.27
2023-02-03T02:10:11.553Z,94.48
2023-02-03T02:11:13.485Z,95.23
2023-02-03T02:12:15.304Z,94.60
2023-02-03T02:13:18.416Z,94.75
2023-02-03T02:14:20.222Z,94.43
2023-02-03T02:15:24.888Z,94.86
2023-02-03T02:16:35.507Z,95.28
2023-02-03T02:17:37.428Z,94.34
2023-02-03T02:18:49.879Z,94.34
2023-02-03T02:19:54.705Z,94.86
2023-02-03T02:21:14.800Z,94.19
2023-02-03T02:22:16.538Z,94.04
2023-02-03T02:23:52.850Z,93.98
2023-02-03T02:25:13.417Z,94.88
2023-02-03T02:26:15.208Z,94.54
2023-02-03T02:27:25.760Z,94.08
2023-02-03T02:28:43.936Z,94.44
2023-02-03T02:30:03.936Z,94.83
2023-02-03T02:31:14.974Z,93.96
2023-02-03T02:32:16.750Z,93.85
2023-02-03T02:33:26.777Z,94.19
2023-02-03T02:34:28.525Z,93.89
2023-02-03T02:35:38.833Z,94.06
2023-02-03T02:36:55.395Z,94.54
2023-02-03T02:37:57.133Z,94.94
2023-02-03T02:39:07.277Z,95.02
2023-02-03T02:40:11.685Z,94.70
2023-02-03T02:41:19.589Z,94.91
2023-02-03T02:42:27.052Z,94.74
2023-02-03T02:43:33.373Z,94.20
2023-02-03T02:44:44.380Z,94.69
2023-02-03T02:45:46.251Z,94.56
2023-02-03T02:46:50.010Z,94.92
2023-02-03T02:47:54.153Z,94.90
2023-02-03T02:48:59.850Z,95.08
2023-02-03T02:50:07.667Z,95.03
2023-02-03T02:51:12.666Z,95.53
2023-02-03T02:52:15.760Z,95.45
2023-02-03T02:53:20.323Z,95.80
2023-02-03T02:54:24.202Z,95.25
2023-02-03T02:55:31.705Z,95.00
2023-02-03T02:56:35.053Z,95.79
2023-02-03T02:57:38.066Z,95.22
2023-02-03T02:58:41.564Z,94.92
2023-02-03T02:59:43.385Z,95.33
2023-02-03T03:00:45.845Z,95.59
2023-02-03T03:01:47.695Z,95.29
2023-02-03T03:02:49.517Z,95.60
2023-02-03T03:03:52.481Z,95.16
2023-02-03T03:04:54.636Z,95.41
2023-02-03T03:06:04.160Z,95.93
2023-02-03T03:07:12.320Z,95.25
2023-02-03T03:08:15.568Z,95.44
2023-02-03T03:09:22.047Z,95.42
2023-02-03T03:10:27.955Z,96.00
2023-02-03T03:11:32.724Z,95.86
2023-02-03T03:12:39.910Z,96.31
2023-02-03T03:13:45.301Z,95.46
2023-02-03T03:14:50.777Z,95.56
2023-02-03T03:15:53.780Z,96.03
2023-02-03T03:17:00.372Z,95.97
2023-02-03T03:18:06.007Z,96.01
2023-02-03T03:19:10.493Z,96.93
2023-02-03T03:20:16.630Z,96.12
2023-02-03T03:21:23.039Z,96.05
2023-02-03T03:22:29.133Z,96.24
2023-02-03T03:23:32.381Z,96.56
2023-02-03T03:24:37.049Z,96.12
2023-02-03T03:25:43.936Z,96.21
2023-02-03T03:26:52.505Z,95.85
2023-02-03T03:28:02.075Z,96.51
2023-02-03T03:29:08.050Z,96.17
2023-02-03T03:30:12.130Z,96.02
2023-02-03T03:31:14.107Z,96.15
2023-02-03T03:32:16.054Z,96.14
2023-02-03T03:33:17.858Z,96.43
2023-02-03T03:34:20.029Z,95.81
2023-02-03T03:35:23.400Z,96.49
2023-02-03T03:36:31.212Z,95.52
2023-02-03T03:37:36.647Z,95.99
2023-02-03T03:38:43.099Z,96.28
2023-02-03T03:39:50.815Z,96.00
2023-02-03T03:40:55.487Z,96.41
2023-02-03T03:42:04.809Z,96.15
2023-02-03T03:43:24.367Z,96.25
2023-02-03T03:44:30.038Z,96.27
2023-02-03T03:45:41.323Z,97.13
2023-02-03T03:46:50.747Z,96.68
2023-02-03T03:47:58.990Z,96.44
2023-02-03T03:49:03.204Z,96.91
2023-02-03T03:50:07.268Z,97.19
2023-02-03T03:51:12.189Z,96.54
2023-02-03T03:52:17.081Z,96.78
2023-02-03T03:53:20.135Z,96.64
2023-02-03T03:54:23.641Z,97.01
2023-02-03T03:55:28.326Z,96.51
2023-02-03T03:56:35.725Z,96.43
2023-02-03T03:57:40.213Z,96.70
2023-02-03T03:58:45.491Z,96.67
2023-02-03T03:59:48.981Z,97.29
2023-02-03T04:00:51.650Z,96.97
2023-02-03T04:01:54.199Z,97.16
2023-02-03T04:02:57.237Z,97.33
2023-02-03T04:04:01.269Z,96.79
2023-02-03T04:05:03.701Z,97.06
2023-02-03T04:06:06.090Z,97.68
2023-02-03T04:07:07.936Z,97.39
2023-02-03T04:08:09.910Z,97.56
2023-02-03T04:09:11.809Z,97.11
2023-02-03T04:10:22.192Z,97.21
2023-02-03T04:11:42.720Z,97.19
2023-02-03T04:12:44.569Z,96.74
2023-02-03T04:13:46.317Z,97.49
2023-02-03T04:14:48.125Z,97.47
2023-02-03T04:15:49.982Z,97.33
2023-02-03T04:16:51.810Z,97.22
2023-02-03T04:17:55.249Z,96.36
2023-02-03T04:18:57.599Z,96.87
2023-02-03T04:19:59.439Z,96.49
2023-02-03T04:21:01.269Z,97.13
2023-02-03T04:22:03.109Z,97.09
2023-02-03T04:23:05.005Z,96.37
2023-02-03T04:24:07.250Z,96.27
2023-02-03T04:25:09.724Z,96.34
2023-02-03T04:26:11.652Z,96.43
2023-02-03T04:27:13.438Z,97.14
2023-02-03T04:28:15.417Z,96.66
2023-02-03T04:29:17.180Z,96.81
2023-02-03T04:30:19.121Z,96.95
2023-02-03T04:31:21.074Z,97.44
2023-02-03T04:32:22.951Z,96.92
2023-02-03T04:33:24.813Z,97.06
2023-02-03T04:34:26.577Z,97.02
2023-02-03T04:35:28.353Z,96.85
2023-02-03T04:36:30.246Z,96.77
2023-02-03T04:37:32.040Z,97.42
2023-02-03T04:38:33.877Z,96.69
2023-02-03T04:39:35.610Z,97.59
2023-02-03T04:40:37.537Z,96.69
2023-02-03T04:41:39.369Z,96.84
2023-02-03T04:42:41.228Z,96.91
2023-02-03T04:43:43.178Z,96.38
2023-02-03T04:44:45.105Z,96.96
2023-02-03T04:45:47.008Z,96.71
2023-02-03T04:46:48.787Z,97.30
2023-02-03T04:47:54.744Z,96.59
2023-02-03T04:48:56.773Z,96.69
2023-02-03T04:49:58.602Z,97.06
2023-02-03T04:51:04.141Z,96.49
2023-02-03T04:52:06.508Z,96.73
2023-02-03T04:53:08.309Z,96.49
2023-02-03T04:54:10.793Z,96.16
2023-02-03T04:55:12.530Z,96.26
2023-02-03T04:56:16.322Z,96.92
2023-02-03T04:57:18.115Z,97.01
2023-02-03T04:58:19.872Z,96.35
2023-02-03T04:59:21.693Z,96.32
2023-02-03T05:00:23.568Z,95.92
2023-02-03T05:01:25.602Z,96.00
2023-02-03T05:02:27.498Z,95.94
2023-02-03T05:03:29.283Z,97.04
2023-02-03T05:04:31.659Z,96.10
2023-02-03T05:05:33.428Z,96.15
2023-02-03T05:06:35.343Z,96.67
2023-02-03T05:07:37.206Z,97.18
2023-02-03T05:08:39.022Z,97.30
2023-02-03T05:09:40.915Z,97.28
2023-02-03T05:10:42.650Z,97.38
2023-02-03T05:11:44.448Z,97.44
2023-02-03T05:12:46.316Z,97.67
2023-02-03T05:13:48.435Z,96.75
2023-02-03T05:14:50.276Z,97.75
2023-02-03T05:15:52.068Z,97.28
2023-02-03T05:16:54.062Z,97.32
2023-02-03T05:17:56.375Z,97.15
2023-02-03T05:18:58.199Z,97.16
2023-02-03T05:20:00.014Z,97.83
2023-02-03T05:21:01.830Z,97.32
2023-02-03T05:22:03.857Z,97.29
2023-02-03T05:23:05.765Z,98.10
2023-02-03T05:24:08.232Z,97.74
2023-02-03T05:25:10.504Z,97.56
2023-02-03T05:26:12.534Z,97.76
2023-02-03T05:27:14.379Z,97.80
2023-02-03T05:28:16.247Z,98.21
2023-02-03T05:29:18.014Z,98.21
2023-02-03T05:30:19.829Z,98.13
2023-02-03T05:31:21.799Z,99.18
2023-02-03T05:32:23.576Z,99.30
2023-02-03T05:33:25.471Z,98.52
2023-02-03T05:34:27.331Z,98.50
2023-02-03T05:35:29.095Z,99.35
2023-02-03T05:36:31.065Z,99.17
2023-02-03T05:37:32.889Z,98.54
2023-02-03T05:38:34.660Z,98.58
2023-02-03T05:39:36.488Z,99.30
2023-02-03T05:40:56.952Z,99.29
2023-02-03T05:41:59.440Z,99.17
2023-02-03T05:43:01.270Z,98.49
2023-02-03T05:44:03.030Z,99.38
2023-02-03T05:45:04.982Z,98.50
2023-02-03T05:46:07.991Z,98.40
2023-02-03T05:47:09.902Z,99.27
2023-02-03T05:48:11.977Z,98.87
2023-02-03T05:49:14.079Z,98.77
2023-02-03T05:50:15.918Z,99.39
2023-02-03T05:51:17.701Z,99.04
2023-02-03T05:52:19.537Z,99.59
2023-02-03T05:53:21.590Z,99.06
2023-02-03T05:54:23.433Z,99.02
2023-02-03T05:55:25.205Z,99.05
2023-02-03T05:56:27.008Z,99.09
2023-02-03T05:57:30.718Z,98.68
2023-02-03T05:58:33.851Z,98.43
2023-02-03T05:59:35.632Z,98.82
2023-02-03T06:00:37.961Z,99.00
2023-02-03T06:01:39.777Z,98.88
2023-02-03T06:02:41.624Z,99.12
2023-02-03T06:03:46.022Z,99.46
2023-02-03T06:04:48.299Z,99.30
2023-02-03T06:05:50.201Z,99.08
2023-02-03T06:06:51.959Z,98.74
2023-02-03T06:07:53.863Z,98.29
2023-02-03T06:08:57.246Z,97.90
2023-02-03T06:09:59.160Z,98.77
2023-02-03T06:11:01.091Z,98.41
2023-02-03T06:12:02.899Z,98.80
2023-02-03T06:13:08.910Z,98.83
2023-02-03T06:14:10.827Z,97.99
2023-02-03T06:15:12.701Z,97.98
2023-02-03T06:16:14.903Z,98.59
2023-02-03T06:17:16.675Z,99.07
2023-02-03T06:18:18.414Z,98.59
2023-02-03T06:19:20.268Z,99.08
2023-02-03T06:20:22.124Z,98.06
2023-02-03T06:21:24.089Z,98.80
2023-02-03T06:22:25.868Z,98.38
2023-02-03T06:23:27.711Z,98.12
2023-02-03T06:24:29.605Z,98.42
2023-02-03T06:25:32.921Z,97.92
2023-02-03T06:26:34.790Z,98.49
2023-02-03T06:27:36.656Z,98.17
2023-02-03T06:28:38.609Z,98.21
2023-02-03T06:29:40.633Z,98.27
2023-02-03T06:30:42.912Z,97.99
2023-02-03T06:31:45.065Z,97.96
2023-02-03T06:32:48.328Z,98.33
2023-02-03T06:33:50.116Z,98.00
2023-02-03T06:34:52.021Z,98.69
2023-02-03T06:35:54.253Z,98.73
2023-02-03T06:36:56.136Z,98.10
2023-02-03T06:37:57.995Z,97.97
2023-02-03T06:38:59.794Z,98.42
2023-02-03T06:40:02.259Z,98.58
2023-02-03T06:41:04.145Z,97.79
2023-02-03T06:42:06.049Z,98.05
2023-02-03T06:43:07.911Z,98.47
2023-02-03T06:44:09.722Z,98.14
2023-02-03T06:45:11.619Z,98.18
2023-02-03T06:46:13.420Z,99.10
2023-02-03T06:47:15.222Z,98.37
2023-02-03T06:48:17.088Z,99.04
2023-02-03T06:49:19.120Z,98.44
2023-02-03T06:50:21.138Z,98.31
2023-02-03T06:51:25.026Z,98.34
2023-02-03T06:52:26.760Z,98.67
2023-02-03T06:53:28.552Z,99.21
2023-02-03T06:54:31.117Z,98.46
2023-02-03T06:55:32.926Z,98.47
2023-02-03T06:56:34.744Z,98.28
2023-02-03T06:57:36.588Z,98.48
2023-02-03T06:58:38.401Z,98.42
2023-02-03T06:59:40.252Z,98.22
2023-02-03T07:00:42.125Z,98.28
2023-02-03T07:01:43.943Z,98.05
2023-02-03T07:02:46.620Z,98.60
2023-02-03T07:03:48.467Z,98.68
2023-02-03T07:04:50.768Z,97.68
2023-02-03T07:05:52.686Z,98.23
2023-02-03T07:06:54.612Z,97.64
2023-02-03T07:07:56.371Z,98.26
2023-02-03T07:09:00.675Z,97.66
2023-02-03T07:10:04.072Z,97.71
2023-02-03T07:11:06.020Z,98.46
2023-02-03T07:12:08.267Z,97.94
2023-02-03T07:13:10.106Z,98.35
2023-02-03T07:14:11.938Z,98.08
2023-02-03T07:15:13.789Z,98.54
2023-02-03T07:16:15.713Z,98.58
2023-02-03T07:17:17.491Z,98.95
2023-02-03T07:18:45.846Z,98.69
2023-02-03T07:19:45.915Z,98.55
2023-02-03T07:20:47.793Z,98.34
2023-02-03T07:21:49.629Z,97.87
2023-02-03T07:22:52.064Z,97.65
2023-02-03T07:23:53.974Z,97.95
2023-02-03T07:24:55.847Z,98.23
2023-02-03T07:26:01.642Z,97.39
2023-02-03T07:27:04.655Z,97.43
2023-02-03T07:28:06.661Z,97.39
2023-02-03T07:29:08.628Z,97.28
2023-02-03T07:30:10.829Z,97.89
2023-02-03T07:31:12.765Z,97.77
2023-02-03T07:32:15.039Z,98.07
2023-02-03T07:33:16.952Z,98.04
2023-02-03T07:34:18.799Z,97.96
2023-02-03T07:35:21.069Z,97.85
2023-02-03T07:36:23.043Z,97.48
2023-02-03T07:37:24.929Z,97.52
2023-02-03T07:38:27.617Z,97.46
2023-02-03T07:39:29.490Z,97.61
2023-02-03T07:40:31.332Z,97.62
2023-02-03T07:41:33.247Z,97.81
2023-02-03T07:42:35.303Z,97.20
2023-02-03T07:43:37.070Z,97.72
2023-02-03T07:44:39.433Z,97.86
2023-02-03T07:45:41.351Z,97.75
2023-02-03T07:46:45.149Z,97.84
2023-02-03T07:47:47.017Z,97.47
2023-02-03T07:48:48.741Z,97.15
2023-02-03T07:49:50.601Z,97.10
2023-02-03T07:50:53.163Z,97.09
2023-02-03T07:51:55.220Z,97.12
2023-02-03T07:52:57.059Z,97.55
2023-02-03T07:53:58.829Z,97.12
2023-02-03T07:55:00.630Z,97.09
2023-02-03T07:56:03.349Z,96.83
2023-02-03T07:57:05.175Z,96.81
2023-02-03T07:58:07.159Z,97.42
2023-02-03T07:59:08.923Z,97.06
2023-02-03T08:00:12.163Z,97.61
2023-02-03T08:01:15.427Z,97.37
2023-02-03T08:02:17.232Z,97.42
2023-02-03T08:03:19.059Z,97.47
2023-02-03T08:04:21.138Z,97.66
2023-02-03T08:05:23.042Z,98.09
2023-02-03T08:06:25.764Z,98.01
2023-02-03T08:07:27.571Z,98.16
2023-02-03T08:08:29.450Z,98.61
2023-02-03T08:09:31.250Z,98.49
2023-02-03T08:10:33.120Z,98.45
2023-02-03T08:11:34.950Z,98.54
2023-02-03T08:12:36.871Z,97.94
2023-02-03T08:13:38.673Z,98.47
2023-02-03T08:14:40.485Z,98.29
2023-02-03T08:15:42.336Z,97.88
2023-02-03T08:16:44.204Z,98.20
2023-02-03T08:17:46.573Z,98.04
2023-02-03T08:18:48.616Z,97.88
2023-02-03T08:19:50.551Z,97.55
2023-02-03T08:20:52.458Z,97.17
2023-02-03T08:21:54.270Z,97.35
2023-02-03T08:22:56.124Z,97.36
2023-02-03T08:23:58.040Z,97.04
2023-02-03T08:24:59.788Z,97.12
2023-02-03T08:26:01.661Z,97.46
2023-02-03T08:27:03.540Z,97.71
2023-02-03T08:28:05.483Z,97.69
2023-02-03T08:29:08.273Z,97.48
2023-02-03T08:30:12.757Z,97.25
2023-02-03T08:31:14.789Z,97.88
2023-02-03T08:32:18.955Z,97.25
2023-02-03T08:33:20.865Z,97.31
2023-02-03T08:34:22.753Z,97.80
2023-02-03T08:35:24.902Z,97.15
2023-02-03T08:36:44.954Z,97.09
2023-02-03T08:37:46.833Z,97.61
2023-02-03T08:38:48.726Z,97.41
2023-02-03T08:39:50.801Z,97.67
2023-02-03T08:40:52.764Z,97.43
2023-02-03T08:41:54.691Z,96.90
2023-02-03T08:42:56.608Z,96.92
2023-02-03T08:43:58.519Z,96.83
2023-02-03T08:45:00.430Z,96.67
2023-02-03T08:46:06.724Z,96.70
2023-02-03T08:47:08.577Z,96.72
2023-02-03T08:48:10.425Z,96.47
2023-02-03T08:49:12.593Z,96.90
2023-02-03T08:50:14.496Z,96.58
2023-02-03T08:51:17.500Z,96.93
2023-02-03T08:52:19.819Z,96.54
2023-02-03T08:53:21.763Z,97.21
2023-02-03T08:54:24.299Z,97.16
2023-02-03T08:55:26.133Z,96.97
2023-02-03T08:56:28.023Z,96.91
2023-02-03T08:57:32.841Z,96.80
2023-02-03T08:58:34.698Z,96.67
2023-02-03T08:59:38.987Z,96.62
2023-02-03T09:00:40.813Z,96.95
2023-02-03T09:01:46.091Z,96.41
2023-02-03T09:02:48.079Z,96.36
2023-02-03T09:03:50.012Z,96.50
2023-02-03T09:04:52.351Z,97.24
2023-02-03T09:05:54.516Z,96.73
2023-02-03T09:06:56.589Z,97.31
2023-02-03T09:07:58.480Z,96.67
2023-02-03T09:09:00.391Z,96.78
2023-02-03T09:10:02.795Z,96.45
2023-02-03T09:11:08.799Z,97.11
2023-02-03T09:12:13.294Z,96.53
2023-02-03T09:13:15.516Z,96.73
2023-02-03T09:14:17.481Z,96.47
2023-02-03T09:15:21.725Z,96.83
2023-02-03T09:16:25.068Z,96.78
2023-02-03T09:17:28.311Z,96.71
2023-02-03T09:18:30.259Z,96.26
2023-02-03T09:19:34.746Z,96.36
2023-02-03T09:20:37.358Z,96.60
2023-02-03T09:21:41.326Z,96.30
2023-02-03T09:22:46.788Z,96.19
2023-02-03T09:23:48.914Z,96.34
2023-02-03T09:24:51.686Z,95.86
2023-02-03T09:25:53.607Z,95.45
2023-02-03T09:26:56.223Z,95.24
2023-02-03T09:27:58.125Z,95.03
2023-02-03T09:29:00.127Z,94.95
2023-02-03T09:30:02.096Z,94.85
2023-02-03T09:31:05.446Z,94.82
2023-02-03T09:32:10.688Z,94.62
2023-02-03T09:33:12.639Z,94.68
2023-02-03T09:34:14.560Z,94.72
2023-02-03T09:35:16.442Z,94.42
2023-02-03T09:36:18.306Z,94.82
2023-02-03T09:37:20.179Z,95.03
2023-02-03T09:38:22.246Z,94.70
2023-02-03T09:39:24.209Z,95.30
2023-02-03T09:40:30.100Z,95.55
2023-02-03T09:41:32.177Z,95.53
2023-02-03T09:42:35.083Z,95.87
2023-02-03T09:44:03.017Z,95.80
2023-02-03T09:45:07.952Z,95.73
2023-02-03T09:46:18.150Z,95.57
2023-02-03T09:47:25.965Z,95.84
2023-02-03T09:48:31.880Z,95.87
2023-02-03T09:49:36.415Z,95.78
2023-02-03T09:50:40.348Z,95.63
2023-02-03T09:52:08.655Z,95.83
2023-02-03T09:53:30.737Z,95.44
2023-02-03T09:54:39.534Z,95.64
2023-02-03T09:55:43.378Z,95.35
2023-02-03T09:56:51.085Z,94.99
2023-02-03T09:57:57.545Z,95.09
2023-02-03T09:59:00.147Z,94.93
2023-02-03T10:00:04.120Z,94.93
2023-02-03T10:01:10.251Z,94.63
2023-02-03T10:02:12.077Z,94.88
2023-02-03T10:03:17.224Z,94.92
2023-02-03T10:04:24.751Z,95.26
2023-02-03T10:05:26.715Z,95.22
2023-02-03T10:06:31.516Z,95.64
2023-02-03T10:07:41.728Z,95.50
2023-02-03T10:08:58.136Z,95.04
2023-02-03T10:10:06.285Z,95.27
2023-02-03T10:11:11.005Z,95.16
2023-02-03T10:12:12.775Z,95.29
2023-02-03T10:13:31.600Z,95.03
2023-02-03T10:14:33.621Z,95.17
2023-02-03T10:15:54.017Z,95.11
2023-02-03T10:17:04.718Z,94.77
2023-02-03T10:18:26.738Z,94.85
2023-02-03T10:19:47.281Z,95.03
2023-02-03T10:20:49.093Z,94.91
2023-02-03T10:21:55.568Z,95.30
2023-02-03T10:22:59.061Z,95.15
2023-02-03T10:24:02.246Z,94.79
2023-02-03T10:25:04.074Z,94.99
2023-02-03T10:26:07.900Z,94.71
2023-02-03T10:27:16.827Z,94.68
2023-02-03T10:28:19.845Z,94.81
2023-02-03T10:29:28.324Z,95.21
2023-02-03T10:30:34.777Z,95.41
2023-02-03T10:31:37.878Z,95.81
2023-02-03T10:32:39.779Z,96.22
2023-02-03T10:33:41.663Z,96.68
2023-02-03T10:34:45.242Z,96.49
2023-02-03T10:35:51.870Z,96.36
2023-02-03T10:36:57.858Z,96.29
2023-02-03T10:38:00.363Z,95.33
2023-02-03T10:39:08.792Z,94.88
2023-02-03T10:40:14.836Z,94.32
2023-02-03T10:41:17.475Z,93.85
2023-02-03T10:42:20.098Z,93.30
2023-02-03T10:43:40.832Z,93.01
2023-02-03T10:44:48.491Z,92.90
2023-02-03T10:45:50.536Z,92.92
2023-02-03T10:46:52.361Z,92.79
2023-02-03T10:47:55.714Z,92.83
2023-02-03T10:48:57.625Z,93.14
2023-02-03T10:50:01.669Z,92.84
2023-02-03T10:51:03.735Z,93.13
2023-02-03T10:52:05.715Z,91.92
2023-02-03T10:53:23.273Z,90.96
2023-02-03T10:54:30.825Z,89.57
2023-02-03T10:55:32.727Z,89.67
2023-02-03T10:56:39.041Z,89.59
2023-02-03T10:57:40.909Z,90.08
2023-02-03T10:58:50.558Z,90.35
2023-02-03T10:59:52.403Z,90.41
2023-02-03T11:01:12.834Z,90.85
2023-02-03T11:02:26.256Z,91.17
2023-02-03T11:03:31.077Z,91.16
2023-02-03T11:04:33.476Z,91.28
2023-02-03T11:05:35.634Z,91.48
2023-02-03T11:06:53.815Z,91.95
2023-02-03T11:07:56.492Z,91.89
2023-02-03T11:08:58.347Z,91.94
2023-02-03T11:10:00.288Z,91.56
2023-02-03T11:11:04.436Z,91.29
2023-02-03T11:12:17.270Z,91.26
2023-02-03T11:13:24.272Z,91.36
2023-02-03T11:14:26.086Z,91.52
2023-02-03T11:15:28.325Z,91.04
2023-02-03T11:16:32.537Z,90.98
2023-02-03T11:17:36.734Z,90.66
2023-02-03T11:18:38.524Z,90.82
2023-02-03T11:19:40.392Z,90.84
2023-02-03T11:20:42.379Z,90.33
2023-02-03T11:21:46.851Z,90.44
2023-02-03T11:22:48.907Z,90.11
2023-02-03T11:24:09.040Z,91.10
2023-02-03T11:25:19.287Z,90.98
2023-02-03T11:26:23.277Z,91.34
2023-02-03T11:27:25.648Z,91.51
2023-02-03T11:28:29.167Z,91.64
2023-02-03T11:29:32.446Z,91.16
2023-02-03T11:30:34.372Z,90.68
2023-02-03T11:31:37.300Z,90.62
2023-02-03T11:32:43.928Z,90.04
2023-02-03T11:33:49.521Z,90.13
2023-02-03T11:34:58.953Z,90.04
2023-02-03T11:36:02.861Z,89.92
2023-02-03T11:37:23.256Z,89.71
2023-02-03T11:38:32.819Z,89.48
2023-02-03T11:39:37.599Z,89.79
2023-02-03T11:40:41.503Z,89.99
2023-02-03T11:41:43.491Z,90.15
2023-02-03T11:42:46.695Z,90.16
2023-02-03T11:43:48.731Z,90.01
2023-02-03T11:44:51.348Z,89.83
2023-02-03T11:45:54.932Z,90.10
2023-02-03T11:47:02.582Z,90.03
2023-02-03T11:48:16.380Z,90.33
2023-02-03T11:49:41.601Z,90.23
2023-02-03T11:50:43.660Z,90.27
2023-02-03T11:51:51.264Z,89.99
2023-02-03T11:52:59.133Z,89.90
2023-02-03T11:54:19.354Z,90.30
2023-02-03T11:55:33.122Z,90.33
2023-02-03T11:56:53.555Z,90.74
2023-02-03T11:58:00.468Z,91.16
2023-02-03T11:59:05.342Z,90.87
2023-02-03T12:00:27.795Z,90.83
2023-02-03T12:01:38.915Z,90.16
2023-02-03T12:02:40.867Z,89.97
2023-02-03T12:03:51.869Z,90.25
2023-02-03T12:05:12.437Z,90.56
2023-02-03T12:06:32.911Z,90.29
2023-02-03T12:07:43.867Z,90.21
2023-02-03T12:09:00.809Z,88.24
2023-02-03T12:10:11.951Z,87.93
2023-02-03T12:11:13.727Z,88.30
2023-02-03T12:12:21.342Z,88.45
2023-02-03T12:13:41.688Z,88.63
2023-02-03T12:14:43.522Z,88.58
2023-02-03T12:15:54.934Z,88.89
2023-02-03T12:16:56.823Z,89.69
2023-02-03T12:17:58.618Z,89.66
2023-02-03T12:19:00.451Z,89.47
2023-02-03T12:20:20.908Z,89.41
2023-02-03T12:21:34.453Z,89.14
2023-02-03T12:22:55.072Z,89.94
2023-02-03T12:24:12.523Z,90.48
2023-02-03T12:25:17.073Z,90.59
2023-02-03T12:26:21.928Z,90.77
2023-02-03T12:27:39.259Z,90.58
2023-02-03T12:28:47.112Z,90.75
2023-02-03T12:29:57.166Z,91.17
2023-02-03T12:31:02.994Z,91.45
2023-02-03T12:32:23.303Z,91.64
2023-02-03T12:33:28.604Z,92.08
2023-02-03T12:34:39.540Z,92.45
2023-02-03T12:36:01.587Z,92.68
2023-02-03T12:37:13.213Z,92.46
2023-02-03T12:38:26.628Z,92.72
2023-02-03T12:39:37.035Z,92.72
2023-02-03T12:40:54.643Z,92.54
2023-02-03T12:42:06.053Z,92.66
2023-02-03T12:43:17.022Z,92.93
2023-02-03T12:44:23.329Z,93.03
2023-02-03T12:45:29.764Z,93.13
2023-02-03T12:46:35.789Z,93.02
2023-02-03T12:47:45.646Z,93.06
2023-02-03T12:49:02.531Z,93.00
2023-02-03T12:50:06.991Z,93.12
2023-02-03T12:51:12.999Z,93.15
2023-02-03T12:52:19.149Z,93.08
2023-02-03T12:53:39.802Z,92.98
2023-02-03T12:54:41.712Z,92.88
2023-02-03T12:55:45.480Z,92.71
2023-02-03T12:56:49.800Z,92.50
2023-02-03T12:57:57.811Z,92.74
2023-02-03T12:59:05.961Z,91.88
2023-02-03T13:00:14.117Z,90.87
2023-02-03T13:01:22.217Z,88.53
2023-02-03T13:02:27.590Z,87.99
2023-02-03T13:03:29.442Z,88.58
2023-02-03T13:04:39.073Z,87.85
2023-02-03T13:05:41.082Z,87.63
2023-02-03T13:06:58.574Z,88.24
2023-02-03T13:08:08.189Z,88.34
2023-02-03T13:09:21.474Z,88.19
2023-02-03T13:10:36.159Z,88.79
2023-02-03T13:11:41.222Z,88.88
2023-02-03T13:12:47.725Z,88.98
2023-02-03T13:13:52.883Z,89.18
2023-02-03T13:14:57.543Z,88.91
2023-02-03T13:16:00.646Z,89.82
2023-02-03T13:17:07.732Z,89.55
2023-02-03T13:18:16.021Z,89.60
2023-02-03T13:19:21.784Z,89.97
2023-02-03T13:20:25.200Z,91.01
2023-02-03T13:21:27.248Z,91.17
2023-02-03T13:22:29.249Z,91.29
2023-02-03T13:23:31.272Z,90.99
2023-02-03T13:24:33.245Z,90.76
2023-02-03T13:25:44.371Z,90.76
2023-02-03T13:26:54.346Z,90.30
2023-02-03T13:28:03.399Z,90.32
2023-02-03T13:29:23.697Z,89.81
2023-02-03T13:30:31.476Z,89.77
2023-02-03T13:31:33.394Z,88.55
2023-02-03T13:32:41.225Z,87.94
2023-02-03T13:34:01.830Z,86.93
2023-02-03T13:35:21.583Z,87.21
2023-02-03T13:36:26.611Z,87.28
2023-02-03T13:37:36.615Z,87.77
2023-02-03T13:38:44.563Z,88.47
2023-02-03T13:39:55.683Z,88.42
2023-02-03T13:41:10.293Z,89.20
2023-02-03T13:42:12.933Z,88.82
2023-02-03T13:43:32.026Z,89.02
2023-02-03T13:44:40.110Z,89.43
2023-02-03T13:45:43.976Z,90.14
2023-02-03T13:46:49.135Z,89.90
2023-02-03T13:47:52.629Z,90.49
2023-02-03T13:48:55.591Z,90.67
2023-02-03T13:50:03.208Z,90.88
2023-02-03T13:51:13.828Z,90.45